Time;durP1;ratioP1;P1;durP2;ratioP2;P2;SDS_P1;SDS_P2;PMS_P1;PMS_P2;Temp;Humidity;BMP_temperature;BMP_pressure;BME280_temperature;BME280_humidity;BME280_pressure;Samples;Min_cycle;Max_cycle;Signal;HPM_P1;HPM_P2
2023/09/30 00:00:59;;;;;;;18.70;5.85;;;12.40;31.00;;;;;;5100868;28;20393;-69
2023/09/30 00:03:25;;;;;;;18.40;6.73;;;12.40;31.40;;;;;;5069205;28;20406;-69
2023/09/30 00:05:50;;;;;;;14.68;6.28;;;12.40;32.30;;;;;;5087667;28;20408;-69
2023/09/30 00:08:16;;;;;;;16.00;6.37;;;12.40;33.80;;;;;;5092657;28;21000;-69
2023/09/30 00:10:42;;;;;;;18.58;6.70;;;12.30;34.90;;;;;;5095541;28;20398;-69
2023/09/30 00:13:07;;;;;;;19.10;6.03;;;12.30;33.90;;;;;;5107140;28;20496;-69
2023/09/30 00:15:34;;;;;;;16.33;6.20;;;12.30;34.80;;;;;;5099206;28;20422;-69
2023/09/30 00:18:01;;;;;;;14.77;5.85;;;12.30;35.30;;;;;;5109476;28;20902;-69
2023/09/30 00:20:27;;;;;;;16.67;5.00;;;12.20;35.20;;;;;;5111219;28;20905;-69
2023/09/30 00:22:52;;;;;;;18.00;5.15;;;12.30;38.20;;;;;;5085737;28;20405;-68
2023/09/30 00:25:18;;;;;;;15.10;5.00;;;12.30;41.30;;;;;;5103667;28;20957;-69
2023/09/30 00:27:44;;;;;;;13.93;4.90;;;12.30;43.90;;;;;;5108344;28;20898;-69
2023/09/30 00:30:10;;;;;;;14.85;4.70;;;12.30;43.00;;;;;;5098510;28;20910;-69
2023/09/30 00:32:35;;;;;;;12.57;4.37;;;12.40;44.80;;;;;;5091474;28;20398;-69
2023/09/30 00:35:02;;;;;;;14.23;4.75;;;12.40;45.10;;;;;;5102798;28;20775;-69
2023/09/30 00:37:27;;;;;;;16.70;4.55;;;12.40;44.50;;;;;;5096991;28;20487;-70
2023/09/30 00:39:53;;;;;;;17.07;4.37;;;12.30;45.60;;;;;;5093325;28;20508;-69
2023/09/30 00:42:20;;;;;;;14.23;3.53;;;12.40;46.40;;;;;;5092830;28;20391;-69
2023/09/30 00:44:46;;;;;;;14.32;3.67;;;12.40;46.70;;;;;;5092773;28;20408;-70
2023/09/30 00:47:14;;;;;;;16.05;4.30;;;12.40;49.00;;;;;;5074310;28;20413;-70
2023/09/30 00:49:43;;;;;;;13.93;3.95;;;12.40;50.50;;;;;;5101257;28;20404;-69
2023/09/30 00:52:09;;;;;;;14.68;3.53;;;12.50;51.30;;;;;;5092151;28;20406;-69
2023/09/30 00:54:37;;;;;;;12.27;3.65;;;12.50;51.00;;;;;;5102073;28;20425;-69
2023/09/30 00:57:03;;;;;;;13.20;3.30;;;12.50;51.00;;;;;;5066930;28;20443;-70
2023/09/30 00:59:32;;;;;;;14.10;3.63;;;12.50;50.90;;;;;;5091726;28;20396;-69
2023/09/30 01:02:00;;;;;;;14.10;3.20;;;12.50;51.30;;;;;;5096505;28;20908;-69
2023/09/30 01:04:27;;;;;;;12.75;3.10;;;12.60;52.30;;;;;;5109903;28;20407;-70
2023/09/30 01:06:53;;;;;;;14.60;3.50;;;12.60;53.30;;;;;;5108542;28;20393;-69
2023/09/30 01:09:19;;;;;;;13.05;3.35;;;12.60;53.70;;;;;;5094996;28;20384;-69
2023/09/30 01:11:45;;;;;;;14.17;3.70;;;12.70;54.40;;;;;;5095870;28;20699;-69
2023/09/30 01:14:30;;;;;;;14.85;3.70;;;12.70;54.90;;;;;;5091719;28;20784;-69
2023/09/30 01:16:57;;;;;;;14.98;3.63;;;12.60;54.00;;;;;;5098210;28;20447;-69
2023/09/30 01:19:26;;;;;;;11.20;3.28;;;12.70;53.30;;;;;;5107378;28;20500;-69
2023/09/30 01:21:54;;;;;;;15.88;3.65;;;12.70;53.80;;;;;;5108593;28;20401;-69
2023/09/30 01:24:20;;;;;;;13.68;3.20;;;12.70;54.40;;;;;;5105197;28;20409;-69
2023/09/30 01:26:46;;;;;;;11.30;2.87;;;12.70;54.50;;;;;;5108690;28;20461;-69
2023/09/30 01:29:11;;;;;;;12.93;3.80;;;12.60;54.20;;;;;;5105915;28;20930;-70
2023/09/30 01:31:38;;;;;;;16.00;3.28;;;12.70;54.20;;;;;;5089557;28;20394;-69
2023/09/30 01:34:04;;;;;;;12.55;2.97;;;12.60;54.90;;;;;;5093710;28;20452;-69
2023/09/30 01:36:30;;;;;;;11.27;3.13;;;12.60;54.60;;;;;;5096530;28;20396;-69
2023/09/30 01:38:56;;;;;;;15.97;3.87;;;12.60;54.40;;;;;;5082219;28;20396;-69
2023/09/30 01:41:22;;;;;;;12.20;3.08;;;12.60;53.70;;;;;;5105944;28;20762;-69
2023/09/30 01:43:48;;;;;;;15.05;3.40;;;12.60;53.90;;;;;;5104685;28;20449;-69
2023/09/30 01:46:14;;;;;;;13.15;3.28;;;12.60;53.10;;;;;;5089488;28;20433;-69
2023/09/30 01:48:39;;;;;;;12.90;3.17;;;12.60;53.90;;;;;;5102354;28;20424;-69
2023/09/30 01:51:06;;;;;;;17.15;3.35;;;12.50;54.10;;;;;;5081422;28;20835;-69
2023/09/30 01:53:32;;;;;;;12.13;3.22;;;12.50;54.40;;;;;;5105459;28;20910;-69
2023/09/30 01:55:57;;;;;;;13.25;3.50;;;12.50;54.10;;;;;;5099862;28;20420;-69
2023/09/30 01:58:24;;;;;;;12.82;3.50;;;12.50;54.00;;;;;;5103361;28;20398;-69
2023/09/30 02:00:50;;;;;;;12.73;3.92;;;12.50;54.40;;;;;;5097539;28;20397;-69
2023/09/30 02:03:17;;;;;;;13.85;3.25;;;12.50;54.50;;;;;;5078252;28;20454;-69
2023/09/30 02:05:42;;;;;;;13.38;3.53;;;12.50;54.30;;;;;;5089416;28;20426;-69
2023/09/30 02:08:08;;;;;;;16.27;3.83;;;12.50;54.40;;;;;;5089617;28;20972;-69
2023/09/30 02:10:34;;;;;;;12.52;3.20;;;12.40;54.20;;;;;;5057139;28;20811;-69
2023/09/30 02:13:00;;;;;;;13.97;3.50;;;12.40;54.50;;;;;;5090453;28;20437;-69
2023/09/30 02:15:26;;;;;;;14.15;3.58;;;12.40;54.70;;;;;;5098653;28;20457;-69
2023/09/30 02:17:52;;;;;;;15.35;3.53;;;12.30;54.40;;;;;;5089250;28;20892;-69
2023/09/30 02:20:19;;;;;;;12.30;3.43;;;12.30;54.50;;;;;;5106003;28;20405;-69
2023/09/30 02:22:46;;;;;;;12.82;3.35;;;12.30;55.00;;;;;;5102394;28;20926;-69
2023/09/30 02:25:12;;;;;;;13.55;3.60;;;12.30;54.80;;;;;;5104575;28;20825;-69
2023/09/30 02:27:41;;;;;;;14.47;3.53;;;12.30;56.10;;;;;;5090882;28;20404;-69
2023/09/30 02:30:07;;;;;;;15.05;3.50;;;12.20;56.70;;;;;;5098169;28;20408;-70
2023/09/30 02:32:33;;;;;;;12.17;3.77;;;12.30;58.20;;;;;;5099158;28;20394;-69
2023/09/30 02:34:59;;;;;;;15.27;4.22;;;12.30;60.00;;;;;;5097329;28;20467;-69
2023/09/30 02:37:25;;;;;;;14.23;4.13;;;12.30;62.40;;;;;;5098285;28;20481;-69
2023/09/30 02:39:51;;;;;;;15.48;4.57;;;12.30;64.10;;;;;;5079263;28;20930;-69
2023/09/30 02:42:17;;;;;;;16.00;4.28;;;12.30;65.10;;;;;;5091725;28;20421;-69
2023/09/30 02:44:42;;;;;;;11.65;3.60;;;12.30;65.00;;;;;;5088716;28;20398;-69
2023/09/30 02:47:08;;;;;;;14.85;3.90;;;12.30;66.10;;;;;;5074747;28;20426;-70
2023/09/30 02:49:34;;;;;;;11.47;3.47;;;12.30;67.40;;;;;;5108542;28;20396;-69
2023/09/30 02:52:00;;;;;;;11.57;3.45;;;12.30;67.40;;;;;;5106187;28;20392;-69
2023/09/30 02:54:26;;;;;;;13.82;4.05;;;12.30;68.00;;;;;;5108346;28;20421;-70
2023/09/30 02:56:52;;;;;;;13.43;3.72;;;12.30;68.90;;;;;;5105885;28;20393;-69
2023/09/30 02:59:18;;;;;;;12.98;3.65;;;12.40;69.00;;;;;;5106245;28;20411;-70
2023/09/30 03:01:44;;;;;;;11.40;3.47;;;12.30;69.50;;;;;;5090219;28;20405;-70
2023/09/30 03:04:12;;;;;;;11.53;3.50;;;12.30;69.80;;;;;;5070321;28;20402;-69
2023/09/30 03:06:38;;;;;;;14.52;3.60;;;12.40;70.80;;;;;;5101653;28;20403;-70
2023/09/30 03:09:04;;;;;;;10.43;3.22;;;12.40;70.90;;;;;;5099280;28;21151;-70
2023/09/30 03:11:31;;;;;;;11.60;3.72;;;12.40;71.10;;;;;;5102651;28;20766;-70
2023/09/30 03:13:57;;;;;;;11.73;3.50;;;12.40;71.10;;;;;;5096576;28;20771;-70
2023/09/30 03:16:24;;;;;;;11.35;3.08;;;12.40;71.70;;;;;;5090673;28;20409;-69
2023/09/30 03:18:50;;;;;;;11.55;3.60;;;12.40;71.30;;;;;;5096250;28;20410;-70
2023/09/30 03:21:16;;;;;;;12.50;3.10;;;12.40;71.40;;;;;;5099091;28;20409;-69
2023/09/30 03:23:42;;;;;;;12.80;3.45;;;12.40;71.40;;;;;;5100751;28;20406;-69
2023/09/30 03:26:09;;;;;;;14.55;3.72;;;12.40;71.40;;;;;;5101090;28;20401;-70
2023/09/30 03:28:38;;;;;;;12.70;3.67;;;12.40;71.70;;;;;;5095456;28;20408;-70
2023/09/30 03:31:04;;;;;;;12.23;3.83;;;12.40;72.00;;;;;;5097827;28;20401;-70
2023/09/30 03:33:34;;;;;;;14.10;3.60;;;12.40;71.80;;;;;;5088055;28;20394;-70
2023/09/30 03:36:00;;;;;;;12.48;3.65;;;12.40;72.10;;;;;;5069569;28;20426;-70
2023/09/30 03:38:26;;;;;;;13.60;3.35;;;12.40;72.30;;;;;;5075016;28;20409;-69
2023/09/30 03:40:54;;;;;;;11.02;3.22;;;12.40;72.30;;;;;;5093346;28;20394;-69
2023/09/30 03:43:21;;;;;;;12.50;3.65;;;12.30;72.30;;;;;;5102068;28;20388;-69
2023/09/30 03:45:46;;;;;;;14.30;3.75;;;12.30;72.40;;;;;;5095391;28;20402;-69
2023/09/30 03:48:12;;;;;;;11.07;3.45;;;12.30;72.40;;;;;;5091102;28;20398;-70
2023/09/30 03:50:38;;;;;;;12.32;3.70;;;12.30;72.60;;;;;;5095643;28;20388;-69
2023/09/30 03:53:05;;;;;;;11.00;3.30;;;12.30;72.60;;;;;;5109506;28;20395;-70
2023/09/30 03:55:31;;;;;;;12.68;3.60;;;12.30;72.80;;;;;;5078395;28;20429;-69
2023/09/30 03:57:58;;;;;;;10.85;3.25;;;12.30;72.80;;;;;;5094573;28;20806;-69
2023/09/30 04:00:24;;;;;;;12.50;3.50;;;12.30;73.10;;;;;;5091465;28;20409;-69
2023/09/30 04:02:54;;;;;;;11.52;3.72;;;12.30;73.20;;;;;;5076138;28;20401;-69
2023/09/30 04:05:29;;;;;;;14.38;3.20;;;12.30;73.10;;;;;;5106123;28;20512;-69
2023/09/30 04:07:56;;;;;;;11.43;3.42;;;12.30;73.40;;;;;;5104836;28;20400;-70
2023/09/30 04:10:25;;;;;;;10.77;3.50;;;12.20;73.40;;;;;;5100787;28;20427;-70
2023/09/30 04:12:52;;;;;;;11.20;3.70;;;12.30;73.40;;;;;;5103543;28;20392;-69
2023/09/30 04:15:18;;;;;;;12.30;4.30;;;12.20;73.50;;;;;;5097296;28;20847;-69
2023/09/30 04:17:44;;;;;;;14.52;4.38;;;12.20;73.50;;;;;;5105155;28;20396;-69
2023/09/30 04:20:15;;;;;;;13.43;4.20;;;12.20;73.60;;;;;;5106171;28;20392;-69
2023/09/30 04:22:46;;;;;;;12.75;4.00;;;12.20;73.70;;;;;;5107366;28;20388;-69
2023/09/30 04:25:12;;;;;;;14.60;4.10;;;12.20;73.70;;;;;;5107546;28;20894;-69
2023/09/30 04:27:38;;;;;;;10.77;3.53;;;12.10;73.80;;;;;;5082430;28;20766;-70
2023/09/30 04:30:08;;;;;;;12.57;4.07;;;12.10;73.90;;;;;;5097948;28;20403;-69
2023/09/30 04:32:36;;;;;;;10.65;3.53;;;12.10;73.90;;;;;;5106914;28;20398;-69
2023/09/30 04:35:03;;;;;;;13.38;3.92;;;12.10;73.70;;;;;;5089260;28;20432;-70
2023/09/30 04:37:29;;;;;;;13.02;3.80;;;12.10;74.30;;;;;;5097274;28;20412;-70
2023/09/30 04:39:54;;;;;;;10.80;3.43;;;12.10;74.40;;;;;;5099111;28;20409;-70
2023/09/30 04:42:20;;;;;;;14.60;3.85;;;12.10;74.80;;;;;;5075645;28;20786;-70
2023/09/30 04:44:46;;;;;;;14.27;3.97;;;12.10;75.00;;;;;;5098844;28;20414;-69
2023/09/30 04:47:11;;;;;;;12.02;3.55;;;12.10;75.00;;;;;;5092119;28;20398;-69
2023/09/30 04:49:37;;;;;;;12.93;4.87;;;12.10;75.20;;;;;;5090008;28;20410;-69
2023/09/30 04:52:05;;;;;;;15.63;6.60;;;12.00;75.10;;;;;;5090782;28;20398;-69
2023/09/30 04:54:30;;;;;;;20.30;7.93;;;12.00;75.00;;;;;;5074036;28;20426;-69
2023/09/30 04:56:56;;;;;;;18.38;6.93;;;12.10;75.50;;;;;;5105135;28;20407;-69
2023/09/30 04:59:24;;;;;;;13.80;5.77;;;12.00;75.40;;;;;;5089427;28;20465;-69
2023/09/30 05:01:50;;;;;;;15.65;4.97;;;12.10;75.60;;;;;;5103177;28;20390;-69
2023/09/30 05:04:16;;;;;;;13.70;4.97;;;12.00;75.60;;;;;;5074722;28;20459;-69
2023/09/30 05:06:41;;;;;;;14.52;5.15;;;12.00;75.80;;;;;;5105960;28;21125;-70
2023/09/30 05:09:07;;;;;;;13.77;4.80;;;12.00;75.80;;;;;;5108587;28;20480;-69
2023/09/30 05:11:35;;;;;;;16.40;5.63;;;12.00;75.90;;;;;;5107283;28;20906;-69
2023/09/30 05:14:00;;;;;;;15.02;5.15;;;12.00;75.80;;;;;;5083058;28;20398;-69
2023/09/30 05:16:27;;;;;;;14.30;5.32;;;12.00;75.80;;;;;;5102605;28;20417;-70
2023/09/30 05:18:52;;;;;;;14.35;5.30;;;12.00;76.00;;;;;;5101445;28;20404;-69
2023/09/30 05:21:18;;;;;;;13.73;5.07;;;12.00;75.90;;;;;;5102053;28;20398;-69
2023/09/30 05:23:43;;;;;;;16.50;4.80;;;12.00;76.20;;;;;;5098400;28;20405;-69
2023/09/30 05:26:09;;;;;;;13.37;4.47;;;12.00;76.40;;;;;;5086939;28;20485;-69
2023/09/30 05:28:35;;;;;;;13.52;4.22;;;12.00;76.40;;;;;;5098849;28;20546;-69
2023/09/30 05:31:02;;;;;;;12.13;4.23;;;11.90;77.00;;;;;;5091727;28;20921;-69
2023/09/30 05:33:28;;;;;;;14.70;4.22;;;11.90;76.30;;;;;;5098306;28;20452;-69
2023/09/30 05:35:54;;;;;;;14.48;4.10;;;11.90;76.60;;;;;;5102851;28;20426;-69
2023/09/30 05:38:20;;;;;;;13.43;4.10;;;11.90;77.00;;;;;;5084165;28;20416;-69
2023/09/30 05:40:46;;;;;;;11.75;3.75;;;11.90;77.00;;;;;;5090026;28;20394;-69
2023/09/30 05:43:13;;;;;;;11.20;4.07;;;11.90;76.90;;;;;;5096906;28;20396;-69
2023/09/30 05:45:48;;;;;;;13.35;4.50;;;11.90;77.20;;;;;;5095911;28;20400;-69
2023/09/30 05:48:16;;;;;;;12.02;4.07;;;11.90;77.50;;;;;;5080355;28;20493;-69
2023/09/30 05:50:43;;;;;;;12.57;4.13;;;11.90;77.70;;;;;;5105474;28;20411;-69
2023/09/30 05:53:10;;;;;;;12.47;3.83;;;11.90;77.90;;;;;;5095349;28;20390;-69
2023/09/30 05:55:37;;;;;;;14.02;4.43;;;11.90;78.10;;;;;;5084645;28;20429;-69
2023/09/30 05:58:03;;;;;;;13.15;4.45;;;11.90;78.20;;;;;;5100640;28;20396;-69
2023/09/30 06:00:30;;;;;;;13.63;4.50;;;11.90;78.30;;;;;;5087625;28;20403;-69
2023/09/30 06:02:57;;;;;;;16.33;5.00;;;11.90;78.30;;;;;;5106082;28;20407;-70
2023/09/30 06:05:22;;;;;;;13.38;4.72;;;11.90;78.00;;;;;;5105347;28;21024;-69
2023/09/30 06:07:49;;;;;;;15.07;4.82;;;11.90;78.50;;;;;;5105466;28;20406;-69
2023/09/30 06:10:15;;;;;;;18.37;5.20;;;12.00;78.70;;;;;;5075977;28;20425;-69
2023/09/30 06:12:41;;;;;;;14.18;5.00;;;12.00;78.80;;;;;;5104998;28;20408;-69
2023/09/30 06:15:07;;;;;;;15.70;5.73;;;12.00;78.50;;;;;;5099966;28;20464;-69
2023/09/30 06:17:33;;;;;;;16.57;5.73;;;12.00;79.30;;;;;;5054324;28;20417;-69
2023/09/30 06:20:07;;;;;;;11.82;5.00;;;12.00;79.50;;;;;;5089418;28;20410;-69
2023/09/30 06:22:33;;;;;;;14.70;4.90;;;12.10;79.60;;;;;;5075024;28;20437;-69
2023/09/30 06:24:58;;;;;;;15.80;5.28;;;12.10;79.70;;;;;;5054125;28;20841;-69
2023/09/30 06:27:24;;;;;;;15.17;5.30;;;12.10;79.90;;;;;;5058388;28;20407;-69
2023/09/30 06:29:49;;;;;;;15.20;5.28;;;12.10;80.10;;;;;;5051104;28;20967;-69
2023/09/30 06:32:15;;;;;;;15.53;5.33;;;12.10;80.30;;;;;;5058315;28;20415;-70
2023/09/30 06:34:41;;;;;;;15.65;6.10;;;12.20;80.20;;;;;;5062724;28;20519;-69
2023/09/30 06:37:08;;;;;;;16.27;5.90;;;12.20;80.40;;;;;;5061672;28;20427;-69
2023/09/30 06:39:34;;;;;;;14.60;6.27;;;12.20;80.80;;;;;;5052575;28;20399;-69
2023/09/30 06:41:59;;;;;;;16.35;6.72;;;12.20;80.60;;;;;;5061222;28;20396;-70
2023/09/30 06:44:25;;;;;;;15.70;6.65;;;12.30;80.60;;;;;;5056122;28;20492;-70
2023/09/30 06:46:51;;;;;;;17.67;6.70;;;12.30;80.80;;;;;;5050072;28;20409;-70
2023/09/30 06:49:16;;;;;;;15.25;6.40;;;12.40;81.00;;;;;;5059051;28;20408;-70
2023/09/30 06:51:43;;;;;;;18.00;7.30;;;12.40;80.60;;;;;;5067433;28;20541;-70
2023/09/30 06:54:08;;;;;;;16.13;6.72;;;12.40;80.90;;;;;;5047384;28;20413;-70
2023/09/30 06:56:34;;;;;;;14.87;6.67;;;12.40;80.90;;;;;;5047459;28;20813;-70
2023/09/30 06:59:01;;;;;;;20.25;7.63;;;12.50;81.10;;;;;;5063589;28;20402;-70
2023/09/30 07:01:26;;;;;;;15.23;6.82;;;12.50;80.90;;;;;;5048547;28;21094;-70
2023/09/30 07:03:52;;;;;;;15.87;6.27;;;12.50;80.60;;;;;;5065799;28;20403;-70
2023/09/30 07:06:27;;;;;;;16.48;6.50;;;12.60;80.90;;;;;;5052993;28;20814;-70
2023/09/30 07:08:53;;;;;;;16.45;6.60;;;12.60;80.80;;;;;;5056554;28;20408;-70
2023/09/30 07:11:33;;;;;;;16.67;6.50;;;12.60;81.10;;;;;;5065017;28;20414;-70
2023/09/30 07:14:00;;;;;;;16.58;7.20;;;12.70;81.20;;;;;;5066137;28;20395;-70
2023/09/30 07:16:25;;;;;;;16.23;6.50;;;12.70;81.20;;;;;;5065049;28;20451;-70
2023/09/30 07:18:51;;;;;;;14.10;6.75;;;12.70;81.00;;;;;;5056089;28;20429;-70
2023/09/30 07:21:17;;;;;;;16.50;6.27;;;12.80;81.00;;;;;;5059223;28;20859;-70
2023/09/30 07:23:42;;;;;;;16.65;6.05;;;12.90;81.20;;;;;;5071462;28;20400;-69
2023/09/30 07:26:08;;;;;;;17.73;6.50;;;12.90;80.70;;;;;;5092307;28;20406;-70
2023/09/30 07:28:34;;;;;;;15.32;6.30;;;13.00;80.70;;;;;;5106171;28;20399;-70
2023/09/30 07:31:00;;;;;;;13.13;6.10;;;13.10;81.10;;;;;;5093297;28;20766;-70
2023/09/30 07:33:25;;;;;;;14.27;6.50;;;13.10;81.10;;;;;;5096266;28;20527;-70
2023/09/30 07:35:51;;;;;;;17.73;6.55;;;13.20;81.10;;;;;;5092739;28;20424;-70
2023/09/30 07:38:17;;;;;;;13.68;6.25;;;13.30;80.60;;;;;;5078632;28;20496;-70
2023/09/30 07:40:43;;;;;;;14.85;5.88;;;13.30;80.60;;;;;;5087712;28;20841;-70
2023/09/30 07:43:09;;;;;;;16.40;6.20;;;13.30;80.60;;;;;;5054394;28;20493;-69
2023/09/30 07:45:35;;;;;;;16.63;5.95;;;13.40;80.40;;;;;;5101729;28;20431;-69
2023/09/30 07:48:04;;;;;;;15.70;5.45;;;13.50;80.10;;;;;;5079353;28;20428;-70
2023/09/30 07:50:30;;;;;;;16.67;5.33;;;13.50;80.00;;;;;;5089686;28;20536;-70
2023/09/30 07:52:55;;;;;;;11.50;5.07;;;13.60;79.90;;;;;;5097687;28;20493;-69
2023/09/30 07:55:21;;;;;;;16.50;5.50;;;13.70;79.90;;;;;;5091310;28;20422;-69
2023/09/30 07:57:46;;;;;;;12.23;4.95;;;13.70;80.00;;;;;;5089656;28;20397;-69
2023/09/30 08:00:15;;;;;;;11.33;4.87;;;13.80;80.00;;;;;;5099770;28;20398;-69
2023/09/30 08:02:42;;;;;;;13.90;4.60;;;13.90;79.70;;;;;;5087844;28;20394;-69
2023/09/30 08:05:08;;;;;;;13.73;4.78;;;14.00;79.30;;;;;;5052902;28;20403;-69
2023/09/30 08:07:34;;;;;;;13.90;5.10;;;14.10;79.20;;;;;;5100061;28;20423;-69
2023/09/30 08:10:00;;;;;;;12.60;4.50;;;14.20;78.90;;;;;;5098241;28;20910;-69
2023/09/30 08:12:25;;;;;;;12.40;4.53;;;14.20;78.40;;;;;;5087748;28;20844;-69
2023/09/30 08:14:51;;;;;;;11.63;4.78;;;14.30;77.90;;;;;;5087621;28;20483;-69
2023/09/30 08:17:17;;;;;;;11.77;3.77;;;14.40;77.00;;;;;;5096610;28;20396;-69
2023/09/30 08:19:44;;;;;;;13.13;4.05;;;14.50;76.60;;;;;;5071448;28;20909;-69
2023/09/30 08:22:09;;;;;;;15.00;4.45;;;14.50;76.20;;;;;;5103189;28;20518;-69
2023/09/30 08:24:35;;;;;;;11.00;3.90;;;14.60;75.90;;;;;;5089658;28;20481;-69
2023/09/30 08:27:01;;;;;;;15.75;4.95;;;14.70;75.70;;;;;;5103034;28;20408;-69
2023/09/30 08:29:27;;;;;;;12.13;4.90;;;14.80;75.30;;;;;;5087551;28;20390;-69
2023/09/30 08:31:52;;;;;;;12.18;4.65;;;14.80;74.80;;;;;;5095463;28;20530;-69
2023/09/30 08:34:21;;;;;;;12.23;4.60;;;14.90;74.20;;;;;;5089765;28;20416;-69
2023/09/30 08:36:46;;;;;;;13.80;4.23;;;15.00;73.40;;;;;;5098929;28;20404;-69
2023/09/30 08:39:12;;;;;;;10.43;3.55;;;15.10;73.20;;;;;;5084238;28;20419;-69
2023/09/30 08:41:38;;;;;;;13.02;3.90;;;15.20;72.70;;;;;;5086036;28;20435;-69
2023/09/30 08:44:04;;;;;;;10.80;3.58;;;15.30;72.10;;;;;;5098570;28;20386;-69
2023/09/30 08:46:31;;;;;;;14.50;4.33;;;15.40;71.20;;;;;;5103395;28;20404;-69
2023/09/30 08:49:00;;;;;;;11.07;3.65;;;15.50;70.80;;;;;;5104497;28;20406;-69
2023/09/30 08:51:27;;;;;;;10.32;3.90;;;15.60;70.60;;;;;;5090392;28;20493;-69
2023/09/30 08:53:56;;;;;;;9.57;3.70;;;15.60;68.70;;;;;;5083688;28;20406;-69
2023/09/30 08:56:26;;;;;;;11.23;3.60;;;15.70;67.30;;;;;;5101391;28;20435;-70
2023/09/30 08:58:54;;;;;;;9.73;3.43;;;15.80;66.90;;;;;;5086255;28;21023;-70
2023/09/30 09:01:20;;;;;;;11.85;3.60;;;15.90;66.00;;;;;;5072183;28;20493;-70
2023/09/30 09:03:52;;;;;;;10.65;3.50;;;16.10;65.10;;;;;;5090964;28;20401;-69
2023/09/30 09:06:22;;;;;;;12.77;3.90;;;16.30;69.80;;;;;;5101388;28;20392;-70
2023/09/30 09:08:48;;;;;;;11.57;3.05;;;16.80;75.20;;;;;;5097991;28;20407;-70
2023/09/30 09:11:17;;;;;;;9.63;3.15;;;17.40;70.10;;;;;;5104815;28;20410;-70
2023/09/30 09:13:50;;;;;;;8.60;2.78;;;18.00;64.30;;;;;;5097965;28;20380;-70
2023/09/30 09:16:20;;;;;;;9.52;2.70;;;18.60;59.10;;;;;;5097123;28;20788;-70
2023/09/30 09:18:47;;;;;;;9.17;3.03;;;19.10;51.40;;;;;;5099348;28;20435;-70
2023/09/30 09:21:23;;;;;;;11.60;2.53;;;19.50;43.50;;;;;;5091482;28;20402;-69
2023/09/30 09:23:50;;;;;;;8.48;2.45;;;19.90;37.30;;;;;;5100473;28;21051;-70
2023/09/30 09:26:30;;;;;;;9.85;2.10;;;20.20;29.60;;;;;;5089333;28;21863;-70
2023/09/30 09:29:06;;;;;;;9.03;2.30;;;20.50;24.20;;;;;;5071719;28;20406;-70
2023/09/30 09:31:35;;;;;;;8.63;2.20;;;20.70;21.40;;;;;;5071595;28;20418;-70
2023/09/30 09:34:03;;;;;;;7.88;2.10;;;21.00;17.20;;;;;;5104751;28;20469;-70
2023/09/30 09:36:43;;;;;;;9.65;2.15;;;21.20;13.70;;;;;;5092037;28;20412;-70
2023/09/30 09:39:12;;;;;;;9.20;2.20;;;21.50;11.00;;;;;;5105235;28;20513;-70
2023/09/30 09:41:55;;;;;;;7.88;2.10;;;21.60;2.80;;;;;;5097100;28;20406;-70
2023/09/30 09:44:22;;;;;;;11.32;2.40;;;21.80;2.80;;;;;;5089332;28;20437;-70
2023/09/30 09:46:50;;;;;;;8.97;2.40;;;21.90;1.00;;;;;;5090518;28;20402;-70
2023/09/30 09:49:17;;;;;;;8.50;1.63;;;22.00;1.00;;;;;;5077816;28;20479;-70
2023/09/30 09:51:50;;;;;;;8.32;1.70;;;22.00;1.00;;;;;;5094236;28;20417;-70
2023/09/30 09:54:16;;;;;;;8.20;1.52;;;22.00;1.00;;;;;;5097324;28;20419;-70
2023/09/30 09:56:44;;;;;;;8.48;1.50;;;22.00;1.00;;;;;;5105004;28;20402;-70
2023/09/30 09:59:12;;;;;;;6.53;1.38;;;22.00;1.00;;;;;;5072428;28;20415;-70
2023/09/30 10:01:40;;;;;;;5.50;1.25;;;22.20;1.00;;;;;;5093042;28;20888;-70
2023/09/30 10:04:06;;;;;;;6.75;1.48;;;22.40;1.00;;;;;;5107875;28;20420;-70
2023/09/30 10:06:38;;;;;;;7.07;1.40;;;22.60;1.00;;;;;;5091774;28;20425;-70
2023/09/30 10:09:07;;;;;;;9.75;1.48;;;22.70;1.00;;;;;;5097897;28;20400;-70
2023/09/30 10:11:34;;;;;;;6.83;1.60;;;22.70;1.00;;;;;;5103885;28;20430;-70
2023/09/30 10:14:11;;;;;;;6.87;1.50;;;22.70;1.00;;;;;;5109211;28;20945;-70
2023/09/30 10:16:37;;;;;;;10.07;1.45;;;22.90;1.00;;;;;;5106509;28;20934;-69
2023/09/30 10:19:09;;;;;;;8.10;1.53;;;23.00;1.00;;;;;;5106732;28;20434;-70
2023/09/30 10:21:35;;;;;;;6.95;1.27;;;23.10;1.00;;;;;;5104294;28;20424;-69
2023/09/30 10:24:23;;;;;;;7.28;1.45;;;23.10;1.00;;;;;;5089214;28;20447;-70
2023/09/30 10:27:34;;;;;;;7.90;1.58;;;23.30;1.00;;;;;;5096060;28;20414;-70
2023/09/30 10:30:15;;;;;;;7.57;1.40;;;23.60;1.00;;;;;;5020090;28;20421;-70
2023/09/30 10:32:53;;;;;;;7.75;1.40;;;23.80;1.00;;;;;;5024997;28;20415;-70
2023/09/30 10:35:27;;;;;;;6.18;1.30;;;23.90;1.00;;;;;;5061086;28;20440;-71
2023/09/30 10:38:22;;;;;;;7.28;1.55;;;24.00;1.00;;;;;;5097467;28;20986;-70
2023/09/30 10:40:50;;;;;;;7.78;1.33;;;24.00;1.00;;;;;;5088096;28;20413;-70
2023/09/30 10:43:35;;;;;;;7.43;1.70;;;23.90;1.00;;;;;;5088954;28;20825;-70
2023/09/30 10:46:02;;;;;;;6.70;1.40;;;24.00;1.00;;;;;;5097759;28;20464;-70
2023/09/30 10:48:27;;;;;;;6.35;1.45;;;23.90;1.00;;;;;;5099266;28;20403;-70
2023/09/30 10:50:56;;;;;;;7.88;1.33;;;23.50;1.00;;;;;;5106140;28;20400;-70
2023/09/30 10:53:22;;;;;;;9.15;1.45;;;23.00;1.00;;;;;;5093043;28;20996;-70
2023/09/30 10:55:58;;;;;;;6.28;1.40;;;22.90;1.00;;;;;;5096917;28;20426;-70
2023/09/30 10:58:40;;;;;;;6.83;1.10;;;22.60;1.00;;;;;;5106615;28;20430;-69
2023/09/30 11:01:06;;;;;;;8.20;1.13;;;22.80;1.00;;;;;;5098176;28;20433;-69
2023/09/30 11:03:32;;;;;;;5.65;1.27;;;23.20;1.00;;;;;;5099161;28;20526;-69
2023/09/30 11:05:58;;;;;;;7.53;1.48;;;23.50;1.00;;;;;;5098430;28;20412;-70
2023/09/30 11:08:24;;;;;;;5.63;0.90;;;23.70;1.00;;;;;;5103730;28;20405;-70
2023/09/30 11:10:51;;;;;;;7.75;1.33;;;24.20;1.00;;;;;;5105526;28;20395;-70
2023/09/30 11:13:17;;;;;;;6.38;1.55;;;24.50;1.00;;;;;;5082342;28;20402;-70
2023/09/30 11:15:44;;;;;;;7.72;1.10;;;24.80;1.00;;;;;;5087932;28;20418;-70
2023/09/30 11:18:17;;;;;;;6.05;1.05;;;24.40;25.60;;;;;;5102453;28;20404;-69
2023/09/30 11:20:44;;;;;;;6.35;1.00;;;23.70;1.00;;;;;;5093913;28;20402;-71
2023/09/30 11:23:11;;;;;;;7.65;1.35;;;23.80;99.90;;;;;;5103154;28;20408;-70
2023/09/30 11:25:38;;;;;;;8.88;1.00;;;24.50;99.90;;;;;;5097228;28;20525;-69
2023/09/30 11:28:18;;;;;;;9.32;1.42;;;25.20;99.90;;;;;;5099343;28;20452;-69
2023/09/30 11:30:58;;;;;;;6.68;1.00;;;25.60;1.00;;;;;;5097485;28;20493;-71
2023/09/30 11:33:25;;;;;;;6.87;1.40;;;25.50;1.00;;;;;;5089156;28;20468;-71
2023/09/30 11:36:09;;;;;;;8.38;1.30;;;25.20;1.00;;;;;;5090099;28;20457;-71
2023/09/30 11:38:35;;;;;;;6.70;1.03;;;25.10;1.00;;;;;;5092381;28;20498;-70
2023/09/30 11:41:06;;;;;;;5.93;0.82;;;24.90;1.00;;;;;;5099616;28;20400;-70
2023/09/30 11:43:33;;;;;;;7.30;1.20;;;25.00;1.00;;;;;;5097637;28;20410;-70
2023/09/30 11:46:09;;;;;;;7.20;1.27;;;25.10;99.90;;;;;;5099875;28;20400;-71
2023/09/30 11:48:38;;;;;;;5.97;1.13;;;25.50;99.90;;;;;;5093647;28;20390;-71
2023/09/30 11:51:04;;;;;;;6.72;1.23;;;25.80;3.80;;;;;;5099186;28;20850;-71
2023/09/30 11:53:31;;;;;;;5.30;1.13;;;26.10;99.90;;;;;;5089276;28;20402;-70
2023/09/30 11:56:02;;;;;;;6.30;1.23;;;26.10;99.90;;;;;;5094209;28;20847;-71
2023/09/30 11:58:28;;;;;;;7.32;1.23;;;25.80;99.90;;;;;;5090447;28;20416;-70
2023/09/30 12:00:59;;;;;;;6.72;1.50;;;25.50;99.90;;;;;;5102587;28;20405;-70
2023/09/30 12:03:27;;;;;;;6.03;1.00;;;24.90;99.90;;;;;;5092614;28;20418;-70
2023/09/30 12:05:55;;;;;;;5.72;1.13;;;24.30;99.90;;;;;;5101515;28;20415;-70
2023/09/30 12:08:22;;;;;;;6.10;1.10;;;23.70;99.90;;;;;;5101139;28;20400;-70
2023/09/30 12:10:47;;;;;;;6.82;1.05;;;23.30;99.90;;;;;;5096533;28;20412;-70
2023/09/30 12:13:15;;;;;;;7.53;1.30;;;23.00;1.00;;;;;;5097289;28;20388;-70
2023/09/30 12:15:41;;;;;;;5.55;1.15;;;22.70;1.00;;;;;;5098302;28;20420;-70
2023/09/30 12:18:06;;;;;;;5.13;1.10;;;22.40;91.40;;;;;;5100326;28;20402;-70
2023/09/30 12:20:33;;;;;;;9.43;1.60;;;22.40;99.90;;;;;;5102579;28;20479;-70
2023/09/30 12:22:59;;;;;;;7.40;1.40;;;22.50;72.80;;;;;;5090591;28;20400;-71
2023/09/30 12:25:25;;;;;;;5.47;1.02;;;23.10;1.00;;;;;;5091208;28;20751;-71
2023/09/30 12:27:51;;;;;;;6.80;1.17;;;23.50;56.90;;;;;;5090367;28;20394;-71
2023/09/30 12:30:20;;;;;;;8.20;1.00;;;23.20;99.90;;;;;;5093994;28;20408;-70
2023/09/30 12:32:45;;;;;;;5.60;1.00;;;22.90;99.90;;;;;;5075368;28;20416;-71
2023/09/30 12:35:11;;;;;;;6.90;1.38;;;22.60;99.90;;;;;;5096304;28;20431;-71
2023/09/30 12:37:38;;;;;;;4.60;0.80;;;22.50;99.90;;;;;;5094891;28;20497;-71
2023/09/30 12:40:06;;;;;;;5.93;1.00;;;22.40;99.90;;;;;;5102542;28;20409;-70
2023/09/30 12:42:34;;;;;;;7.00;1.10;;;22.20;99.90;;;;;;5099118;28;20400;-70